createdAt,value
2018-07-27T00:03:37.600Z,6.90
2018-07-27T00:08:40.703Z,6.93
2018-07-27T00:13:43.806Z,6.97
2018-07-27T00:18:46.924Z,7.80
2018-07-27T00:23:50.032Z,7.63
2018-07-27T00:28:53.159Z,7.00
2018-07-27T00:33:56.276Z,6.80
2018-07-27T00:38:59.367Z,7.80
2018-07-27T00:44:02.489Z,6.77
2018-07-27T00:49:05.739Z,6.57
2018-07-27T00:54:08.847Z,6.87
2018-07-27T00:59:11.964Z,6.00
2018-07-27T01:04:15.088Z,6.20
2018-07-27T01:09:18.204Z,7.37
2018-07-27T01:14:21.308Z,6.30
2018-07-27T01:19:24.440Z,6.77
2018-07-27T01:24:27.559Z,7.13
2018-07-27T01:29:30.676Z,6.90
2018-07-27T01:34:33.789Z,7.17
2018-07-27T01:39:36.879Z,8.10
2018-07-27T01:44:39.957Z,8.03
2018-07-27T01:49:43.043Z,7.60
2018-07-27T01:54:46.159Z,7.93
2018-07-27T01:59:49.280Z,7.80
2018-07-27T02:04:52.400Z,7.87
2018-07-27T02:09:55.753Z,8.00
2018-07-27T02:14:58.860Z,8.17
2018-07-27T02:20:01.974Z,7.80
2018-07-27T02:25:05.108Z,8.37
2018-07-27T02:30:08.231Z,8.43
2018-07-27T02:35:11.337Z,8.73
2018-07-27T02:40:14.448Z,9.50
2018-07-27T02:45:17.573Z,8.80
2018-07-27T02:50:20.809Z,9.40
2018-07-27T02:55:23.992Z,7.80
2018-07-27T03:00:27.203Z,8.83
2018-07-27T03:05:30.494Z,9.60
2018-07-27T03:10:33.604Z,8.53
2018-07-27T03:15:36.492Z,9.20
2018-07-27T03:20:39.612Z,9.63
2018-07-27T03:25:42.726Z,8.80
2018-07-27T03:30:45.849Z,8.60
2018-07-27T03:35:48.955Z,10.13
2018-07-27T03:40:52.305Z,8.90
2018-07-27T03:45:55.416Z,9.20
2018-07-27T03:50:58.508Z,8.70
2018-07-27T03:56:01.609Z,8.07
2018-07-27T04:01:04.716Z,9.37
2018-07-27T04:06:07.804Z,8.70
2018-07-27T04:11:10.952Z,7.90
2018-07-27T04:16:14.076Z,8.47
2018-07-27T04:21:17.199Z,8.33
2018-07-27T04:26:20.287Z,8.37
2018-07-27T04:31:23.432Z,7.93
2018-07-27T04:36:26.548Z,8.50
2018-07-27T04:41:29.923Z,7.83
2018-07-27T04:46:33.024Z,7.67
2018-07-27T04:51:36.148Z,7.27
2018-07-27T04:56:39.349Z,7.83
2018-07-27T05:01:42.369Z,8.63
2018-07-27T05:06:45.457Z,7.77
2018-07-27T05:11:48.583Z,7.70
2018-07-27T05:16:51.697Z,7.87
2018-07-27T05:21:54.913Z,8.33
2018-07-27T05:26:58.041Z,7.37
2018-07-27T05:32:01.109Z,6.77
2018-07-27T05:37:04.303Z,7.23
2018-07-27T05:42:07.202Z,7.67
2018-07-27T05:47:10.339Z,7.67
2018-07-27T05:52:13.214Z,7.20
2018-07-27T05:57:16.324Z,6.70
2018-07-27T06:02:22.072Z,5.97
2018-07-27T06:07:22.543Z,6.80
2018-07-27T06:12:25.645Z,6.53
2018-07-27T06:17:28.753Z,6.77
2018-07-27T06:22:31.881Z,7.30
2018-07-27T06:27:35.000Z,7.30
2018-07-27T06:32:38.107Z,6.63
2018-07-27T06:37:41.224Z,8.00
2018-07-27T06:42:44.349Z,6.90
2018-07-27T06:47:47.454Z,6.60
2018-07-27T06:52:50.610Z,7.53
2018-07-27T06:57:54.186Z,7.37
2018-07-27T07:02:57.375Z,6.00
2018-07-27T07:08:00.496Z,7.00
2018-07-27T07:13:03.604Z,7.10
2018-07-27T07:18:06.728Z,6.47
2018-07-27T07:23:09.888Z,7.13
2018-07-27T07:28:12.979Z,6.47
2018-07-27T07:33:16.128Z,7.37
2018-07-27T07:38:19.200Z,6.90
2018-07-27T07:43:22.305Z,6.17
2018-07-27T07:48:25.447Z,6.90
2018-07-27T07:53:28.611Z,7.00
2018-07-27T07:58:31.817Z,6.13
2018-07-27T08:03:34.890Z,6.03
2018-07-27T08:08:38.057Z,6.00
2018-07-27T08:13:41.149Z,6.27
2018-07-27T08:18:44.508Z,6.00
2018-07-27T08:23:47.619Z,6.50
2018-07-27T08:28:50.809Z,6.20
2018-07-27T08:33:54.450Z,6.20
2018-07-27T08:38:57.560Z,5.63
2018-07-27T08:44:00.869Z,5.57
2018-07-27T08:49:03.973Z,5.90
2018-07-27T08:54:07.228Z,4.80
2018-07-27T08:59:10.340Z,4.67
2018-07-27T09:04:13.247Z,5.33
2018-07-27T09:09:17.428Z,4.00
2018-07-27T09:14:20.594Z,4.40
2018-07-27T09:19:23.673Z,5.13
2018-07-27T09:24:26.940Z,4.27
2018-07-27T09:29:29.731Z,4.20
2018-07-27T09:34:32.827Z,4.30
2018-07-27T09:39:35.913Z,5.13
2018-07-27T09:44:39.029Z,4.97
2018-07-27T09:49:42.735Z,5.00
2018-07-27T09:54:45.892Z,4.40
2018-07-27T09:59:49.048Z,4.63
2018-07-27T10:04:52.175Z,4.77
2018-07-27T10:09:55.352Z,4.77
2018-07-27T10:14:58.322Z,5.00
2018-07-27T10:20:01.421Z,5.40
2018-07-27T10:25:04.557Z,4.20
2018-07-27T10:30:07.849Z,6.13
2018-07-27T10:35:10.979Z,5.30
2018-07-27T10:40:14.097Z,5.57
2018-07-27T10:45:16.990Z,5.70
2018-07-27T10:50:19.986Z,5.27
2018-07-27T10:55:23.096Z,5.17
2018-07-27T11:00:26.202Z,5.83
2018-07-27T11:05:29.334Z,4.80
2018-07-27T11:10:32.673Z,5.07
2018-07-27T11:15:35.950Z,4.43
2018-07-27T11:20:39.070Z,4.87
2018-07-27T11:25:42.200Z,5.33
2018-07-27T11:30:45.127Z,5.23
2018-07-27T11:35:48.247Z,4.53
2018-07-27T11:40:51.368Z,4.60
2018-07-27T11:45:54.487Z,5.33
2018-07-27T11:50:57.472Z,5.53
2018-07-27T11:56:00.642Z,5.07
2018-07-27T12:01:03.732Z,5.80
2018-07-27T12:06:06.992Z,4.77
2018-07-27T12:11:10.187Z,4.53
2018-07-27T12:16:13.283Z,5.23
2018-07-27T12:21:16.490Z,5.13
2018-07-27T12:26:19.500Z,5.10
2018-07-27T12:31:22.699Z,5.23
2018-07-27T12:36:25.803Z,5.43
2018-07-27T12:41:28.909Z,5.23
2018-07-27T12:46:32.046Z,4.67
2018-07-27T12:51:35.098Z,5.30
2018-07-27T12:56:38.192Z,4.63
2018-07-27T13:01:41.333Z,4.50
2018-07-27T13:06:44.522Z,5.20
2018-07-27T13:11:47.641Z,4.87
2018-07-27T13:16:50.772Z,5.70
2018-07-27T13:21:54.053Z,5.20
2018-07-27T13:26:56.935Z,4.37
2018-07-27T13:32:00.128Z,4.97
2018-07-27T13:37:03.080Z,5.50
2018-07-27T13:42:07.131Z,5.57
2018-07-27T13:47:10.659Z,5.43
2018-07-27T13:52:13.783Z,5.80
2018-07-27T13:57:17.064Z,5.40
2018-07-27T14:02:20.247Z,4.70
2018-07-27T14:07:23.367Z,5.00
2018-07-27T14:12:26.471Z,5.67
2018-07-27T14:17:29.651Z,5.83
2018-07-27T14:22:32.785Z,5.60
2018-07-27T14:27:35.873Z,5.03
2018-07-27T14:32:39.072Z,5.30
2018-07-27T14:37:42.173Z,5.20
2018-07-27T14:42:45.280Z,5.37
2018-07-27T14:47:48.391Z,5.87
2018-07-27T14:52:51.576Z,5.27
2018-07-27T14:57:54.858Z,5.27
2018-07-27T15:02:58.036Z,4.87
2018-07-27T15:08:01.135Z,6.07
2018-07-27T15:13:04.256Z,6.43
2018-07-27T15:18:07.515Z,6.17
2018-07-27T15:23:10.623Z,6.20
2018-07-27T15:28:13.795Z,6.40
2018-07-27T15:33:16.911Z,6.80
2018-07-27T15:38:20.015Z,5.83
2018-07-27T15:43:23.108Z,6.20
2018-07-27T15:48:26.271Z,6.67
2018-07-27T15:53:29.295Z,5.43
2018-07-27T15:58:32.423Z,6.00
2018-07-27T16:03:35.648Z,5.77
2018-07-27T16:08:38.756Z,6.60
2018-07-27T16:13:41.937Z,6.23
2018-07-27T16:18:45.152Z,5.77
2018-07-27T16:23:48.259Z,5.73
2018-07-27T16:28:51.391Z,5.87
2018-07-27T16:33:54.479Z,5.60
2018-07-27T16:38:57.724Z,5.47
2018-07-27T16:44:00.807Z,5.20
2018-07-27T16:49:04.012Z,5.27
2018-07-27T16:54:07.125Z,4.33
2018-07-27T16:59:10.239Z,4.50
2018-07-27T17:04:13.366Z,3.73
2018-07-27T17:09:16.498Z,4.70
2018-07-27T17:14:19.572Z,4.87
2018-07-27T17:19:22.664Z,3.60
2018-07-27T17:24:25.984Z,3.90
2018-07-27T17:29:28.877Z,3.80
2018-07-27T17:34:31.934Z,4.00
2018-07-27T17:39:35.015Z,4.17
2018-07-27T17:44:38.123Z,3.83
2018-07-27T17:49:41.220Z,3.70
2018-07-27T17:54:44.365Z,4.13
2018-07-27T17:59:47.636Z,4.63
2018-07-27T18:04:50.747Z,3.93
2018-07-27T18:09:54.560Z,4.77
2018-07-27T18:14:57.649Z,4.13
2018-07-27T18:20:00.753Z,3.90
2018-07-27T18:25:04.382Z,4.57
2018-07-27T18:30:08.048Z,4.90
2018-07-27T18:35:11.200Z,5.50
2018-07-27T18:40:14.284Z,5.50
2018-07-27T18:45:17.377Z,4.90
2018-07-27T18:50:20.499Z,5.50
2018-07-27T18:55:23.594Z,6.27
2018-07-27T19:00:26.695Z,6.40
2018-07-27T19:05:29.575Z,5.80
2018-07-27T19:10:32.702Z,5.73
2018-07-27T19:15:35.600Z,5.93
2018-07-27T19:20:38.496Z,6.27
2018-07-27T19:25:41.874Z,6.03
2018-07-27T19:30:45.026Z,6.10
2018-07-27T19:35:48.104Z,5.67
2018-07-27T19:40:51.212Z,6.20
2018-07-27T19:45:54.319Z,6.77
2018-07-27T19:50:57.722Z,5.77
2018-07-27T19:56:00.827Z,6.23
2018-07-27T20:01:03.915Z,6.63
2018-07-27T20:06:07.055Z,6.30
2018-07-27T20:11:10.159Z,6.23
2018-07-27T20:16:13.272Z,5.47
2018-07-27T20:21:16.369Z,5.63
2018-07-27T20:26:19.484Z,5.50
2018-07-27T20:31:22.579Z,5.30
2018-07-27T20:36:26.092Z,6.20
2018-07-27T20:41:29.192Z,6.37
2018-07-27T20:46:32.301Z,6.90
2018-07-27T20:51:35.515Z,5.50
2018-07-27T20:56:38.711Z,6.13
2018-07-27T21:01:47.652Z,6.30
2018-07-27T21:06:50.876Z,6.17
2018-07-27T21:11:53.967Z,6.20
2018-07-27T21:16:57.193Z,6.30
2018-07-27T21:22:01.396Z,6.27
2018-07-27T21:27:04.504Z,5.90
2018-07-27T21:32:08.092Z,6.07
2018-07-27T21:37:11.217Z,6.17
2018-07-27T21:42:14.315Z,6.23
2018-07-27T21:47:17.418Z,6.60
2018-07-27T21:52:20.535Z,6.30
2018-07-27T21:57:23.644Z,7.30
2018-07-27T22:02:26.839Z,7.03
2018-07-27T22:07:29.961Z,6.20
2018-07-27T22:12:33.076Z,6.40
2018-07-27T22:17:36.260Z,5.63
2018-07-27T22:22:39.383Z,7.13
2018-07-27T22:27:43.963Z,6.00
2018-07-27T22:32:47.044Z,6.77
2018-07-27T22:37:50.152Z,6.90
2018-07-27T22:42:53.248Z,5.90
2018-07-27T22:47:56.363Z,6.87
2018-07-27T22:52:59.567Z,6.40
2018-07-27T22:58:02.672Z,6.67
2018-07-27T23:03:06.283Z,6.13
2018-07-27T23:08:09.561Z,6.80
2018-07-27T23:13:12.631Z,6.67
2018-07-27T23:18:15.749Z,6.27
2018-07-27T23:23:18.961Z,6.27
2018-07-27T23:28:22.081Z,6.80
2018-07-27T23:33:25.202Z,6.40
2018-07-27T23:38:28.337Z,6.00
2018-07-27T23:43:31.460Z,7.17
2018-07-27T23:48:34.571Z,6.20
2018-07-27T23:53:37.675Z,7.03
2018-07-27T23:58:40.795Z,7.20
